createdAt,value
2023-04-19T00:01:47.226Z,5.97
2023-04-19T00:04:15.175Z,6.77
2023-04-19T00:06:42.991Z,6.63
2023-04-19T00:09:10.395Z,7.00
2023-04-19T00:11:37.765Z,5.90
2023-04-19T00:14:05.247Z,5.90
2023-04-19T00:16:32.775Z,6.20
2023-04-19T00:19:00.427Z,5.43
2023-04-19T00:21:27.798Z,5.53
2023-04-19T00:23:55.165Z,6.00
2023-04-19T00:26:22.510Z,5.90
2023-04-19T00:28:49.955Z,5.80
2023-04-19T00:31:17.417Z,5.83
2023-04-19T00:33:44.798Z,6.67
2023-04-19T00:36:12.189Z,6.20
2023-04-19T00:38:39.570Z,6.90
2023-04-19T00:41:06.950Z,6.50
2023-04-19T00:43:34.401Z,6.87
2023-04-19T00:46:01.886Z,7.00
2023-04-19T00:48:30.813Z,7.13
2023-04-19T00:50:58.170Z,8.03
2023-04-19T00:53:25.618Z,7.50
2023-04-19T00:55:53.253Z,8.23
2023-04-19T00:58:20.594Z,8.87
2023-04-19T01:00:47.966Z,9.47
2023-04-19T01:03:16.725Z,9.63
2023-04-19T01:05:44.202Z,9.37
2023-04-19T01:08:13.648Z,10.40
2023-04-19T01:10:41.035Z,10.37
2023-04-19T01:13:08.413Z,10.80
2023-04-19T01:15:36.665Z,11.70
2023-04-19T01:18:04.093Z,11.67
2023-04-19T01:20:31.453Z,10.93
2023-04-19T01:22:58.840Z,12.10
2023-04-19T01:25:26.802Z,10.60
2023-04-19T01:27:54.204Z,11.53
2023-04-19T01:30:21.566Z,11.70
2023-04-19T01:32:48.895Z,11.37
2023-04-19T01:35:16.278Z,12.40
2023-04-19T01:37:43.662Z,11.67
2023-04-19T01:40:11.242Z,12.43
2023-04-19T01:42:38.629Z,12.07
2023-04-19T01:45:06.290Z,12.60
2023-04-19T01:47:33.736Z,11.20
2023-04-19T01:50:01.089Z,12.17
2023-04-19T01:52:28.582Z,11.80
2023-04-19T01:54:55.911Z,12.80
2023-04-19T01:57:23.296Z,13.30
2023-04-19T01:59:51.368Z,12.87
2023-04-19T02:02:18.877Z,13.10
2023-04-19T02:04:46.423Z,12.73
2023-04-19T02:07:13.796Z,13.60
2023-04-19T02:09:41.186Z,13.00
2023-04-19T02:12:08.575Z,13.00
2023-04-19T02:14:36.051Z,14.43
2023-04-19T02:17:03.605Z,14.10
2023-04-19T02:19:30.980Z,12.30
2023-04-19T02:21:58.450Z,12.57
2023-04-19T02:24:25.943Z,13.43
2023-04-19T02:26:53.293Z,13.00
2023-04-19T02:29:20.848Z,12.77
2023-04-19T02:31:48.285Z,14.20
2023-04-19T02:34:15.821Z,13.60
2023-04-19T02:36:43.518Z,13.33
2023-04-19T02:39:10.916Z,13.30
2023-04-19T02:41:38.294Z,13.20
2023-04-19T02:44:05.859Z,13.83
2023-04-19T02:46:33.324Z,14.30
2023-04-19T02:49:03.455Z,14.00
2023-04-19T02:51:30.870Z,12.67
2023-04-19T02:53:58.221Z,14.40
2023-04-19T02:56:25.941Z,14.50
2023-04-19T02:58:54.858Z,14.20
2023-04-19T03:01:22.189Z,13.40
2023-04-19T03:03:49.697Z,14.63
2023-04-19T03:06:17.309Z,13.73
2023-04-19T03:08:44.859Z,14.23
2023-04-19T03:11:12.741Z,14.30
2023-04-19T03:13:40.516Z,15.40
2023-04-19T03:16:08.439Z,14.60
2023-04-19T03:18:36.913Z,14.43
2023-04-19T03:21:04.359Z,15.10
2023-04-19T03:23:31.776Z,15.13
2023-04-19T03:25:59.149Z,15.63
2023-04-19T03:28:26.549Z,14.57
2023-04-19T03:30:53.942Z,15.17
2023-04-19T03:33:21.309Z,14.60
2023-04-19T03:35:48.685Z,15.40
2023-04-19T03:38:16.142Z,13.93
2023-04-19T03:40:43.536Z,14.73
2023-04-19T03:43:10.962Z,15.70
2023-04-19T03:45:38.350Z,14.50
2023-04-19T03:48:05.831Z,16.10
2023-04-19T03:50:33.187Z,14.07
2023-04-19T03:53:00.584Z,14.60
2023-04-19T03:55:28.018Z,15.80
2023-04-19T03:57:55.412Z,15.53
2023-04-19T04:00:22.862Z,13.57
2023-04-19T04:02:50.497Z,14.43
2023-04-19T04:05:18.263Z,13.03
2023-04-19T04:07:45.807Z,14.80
2023-04-19T04:10:13.173Z,15.40
2023-04-19T04:12:40.506Z,14.63
2023-04-19T04:15:08.363Z,15.80
2023-04-19T04:17:35.793Z,15.33
2023-04-19T04:20:03.376Z,14.60
2023-04-19T04:22:31.266Z,15.13
2023-04-19T04:24:59.090Z,15.67
2023-04-19T04:27:26.483Z,14.87
2023-04-19T04:29:54.337Z,14.60
2023-04-19T04:32:23.232Z,17.03
2023-04-19T04:34:51.133Z,15.67
2023-04-19T04:37:18.552Z,15.63
2023-04-19T04:39:45.955Z,16.60
2023-04-19T04:42:13.522Z,16.83
2023-04-19T04:44:41.983Z,17.13
2023-04-19T04:47:09.360Z,16.77
2023-04-19T04:49:37.368Z,17.37
2023-04-19T04:52:04.823Z,16.13
2023-04-19T04:54:32.211Z,15.07
2023-04-19T04:56:59.627Z,18.63
2023-04-19T04:59:27.128Z,18.80
2023-04-19T05:01:54.674Z,18.10
2023-04-19T05:04:22.097Z,16.87
2023-04-19T05:06:49.529Z,17.00
2023-04-19T05:09:16.841Z,17.30
2023-04-19T05:11:44.239Z,18.00
2023-04-19T05:14:12.398Z,17.03
2023-04-19T05:16:40.268Z,16.27
2023-04-19T05:19:07.635Z,17.27
2023-04-19T05:21:35.150Z,16.50
2023-04-19T05:24:02.850Z,17.40
2023-04-19T05:26:30.248Z,16.90
2023-04-19T05:28:57.612Z,16.90
2023-04-19T05:31:25.058Z,17.70
2023-04-19T05:33:52.419Z,17.47
2023-04-19T05:36:19.771Z,16.90
2023-04-19T05:38:47.164Z,17.33
2023-04-19T05:41:16.109Z,15.80
2023-04-19T05:43:43.538Z,16.23
2023-04-19T05:46:11.156Z,17.50
2023-04-19T05:48:38.578Z,16.90
2023-04-19T05:51:05.965Z,15.93
2023-04-19T05:53:33.336Z,16.70
2023-04-19T05:56:00.801Z,15.70
2023-04-19T05:58:28.201Z,16.40
2023-04-19T06:00:55.643Z,16.17
2023-04-19T06:03:23.202Z,15.77
2023-04-19T06:05:50.687Z,15.70
2023-04-19T06:08:18.683Z,16.47
2023-04-19T06:10:54.991Z,14.93
2023-04-19T06:13:16.856Z,14.40
2023-04-19T06:15:44.336Z,14.10
2023-04-19T06:18:19.362Z,14.10
2023-04-19T06:20:40.992Z,15.03
2023-04-19T06:23:08.452Z,14.20
2023-04-19T06:25:35.906Z,13.50
2023-04-19T06:28:03.287Z,12.87
2023-04-19T06:30:30.688Z,12.93
2023-04-19T06:32:58.045Z,12.37
2023-04-19T06:35:25.404Z,11.40
2023-04-19T06:37:52.761Z,11.70
2023-04-19T06:40:20.147Z,11.57
2023-04-19T06:42:47.531Z,10.53
2023-04-19T06:45:15.875Z,9.77
2023-04-19T06:47:43.298Z,10.30
2023-04-19T06:50:11.321Z,10.30
2023-04-19T06:52:39.071Z,9.73
2023-04-19T06:55:07.432Z,9.40
2023-04-19T06:57:34.807Z,9.13
2023-04-19T07:00:02.237Z,8.70
2023-04-19T07:02:29.662Z,9.33
2023-04-19T07:04:57.172Z,8.80
2023-04-19T07:07:24.542Z,7.87
2023-04-19T07:09:51.863Z,8.23
2023-04-19T07:12:19.336Z,7.87
2023-04-19T07:14:46.694Z,7.97
2023-04-19T07:17:14.233Z,7.07
2023-04-19T07:19:42.294Z,8.47
2023-04-19T07:22:09.656Z,6.50
2023-04-19T07:24:38.632Z,7.13
2023-04-19T07:27:06.067Z,6.90
2023-04-19T07:29:35.212Z,6.50
2023-04-19T07:32:02.629Z,7.10
2023-04-19T07:34:30.199Z,6.57
2023-04-19T07:36:57.662Z,6.40
2023-04-19T07:39:25.038Z,7.00
2023-04-19T07:41:52.401Z,8.00
2023-04-19T07:44:19.794Z,6.50
2023-04-19T07:46:47.269Z,6.60
2023-04-19T07:49:14.757Z,6.20
2023-04-19T07:51:42.121Z,10.40
2023-04-19T07:54:10.199Z,5.87
2023-04-19T07:56:37.865Z,9.47
2023-04-19T07:59:08.926Z,6.10
2023-04-19T08:01:34.361Z,6.30
2023-04-19T08:04:01.950Z,7.33
2023-04-19T08:06:30.509Z,6.63
2023-04-19T08:08:57.874Z,6.30
2023-04-19T08:11:25.506Z,6.33
2023-04-19T08:14:04.438Z,5.70
2023-04-19T08:17:01.368Z,5.80
2023-04-19T08:18:51.797Z,5.73
2023-04-19T08:21:20.953Z,5.93
2023-04-19T08:23:48.837Z,8.30
2023-04-19T08:26:16.434Z,6.77
2023-04-19T08:28:43.817Z,6.60
2023-04-19T08:31:11.210Z,5.33
2023-04-19T08:33:38.591Z,6.00
2023-04-19T08:36:06.589Z,5.80
2023-04-19T08:38:33.974Z,7.63
2023-04-19T08:41:01.594Z,5.50
2023-04-19T08:43:32.283Z,6.23
2023-04-19T08:45:59.784Z,4.90
2023-04-19T08:48:27.863Z,5.10
2023-04-19T08:51:05.165Z,4.50
2023-04-19T08:53:27.320Z,5.47
2023-04-19T08:56:10.618Z,4.57
2023-04-19T08:58:37.025Z,4.43
2023-04-19T09:00:55.743Z,4.33
2023-04-19T09:03:23.350Z,4.53
2023-04-19T09:05:51.012Z,5.63
2023-04-19T09:08:22.808Z,5.20
2023-04-19T09:10:54.337Z,5.60
2023-04-19T09:13:21.717Z,5.40
2023-04-19T09:15:49.209Z,5.53
2023-04-19T09:18:16.516Z,5.00
2023-04-19T09:20:44.588Z,5.00
2023-04-19T09:23:12.931Z,5.13
2023-04-19T09:26:05.909Z,5.53
2023-04-19T09:28:10.903Z,5.33
2023-04-19T09:30:50.212Z,5.80
2023-04-19T09:33:10.765Z,6.10
2023-04-19T09:35:47.184Z,5.30
2023-04-19T09:38:15.112Z,6.10
2023-04-19T09:40:42.863Z,5.40
2023-04-19T09:43:26.243Z,5.10
2023-04-19T09:45:45.697Z,5.53
2023-04-19T09:48:13.737Z,5.53
2023-04-19T09:51:00.246Z,5.60
2023-04-19T09:53:24.552Z,6.17
2023-04-19T09:56:01.292Z,5.73
2023-04-19T09:58:21.735Z,5.53
2023-04-19T10:00:55.031Z,5.87
2023-04-19T10:03:21.409Z,6.00
2023-04-19T10:05:50.232Z,5.73
2023-04-19T10:08:17.749Z,6.33
2023-04-19T10:10:46.686Z,5.70
2023-04-19T10:13:20.501Z,6.97
2023-04-19T10:15:51.375Z,6.53
2023-04-19T10:18:13.761Z,5.37
2023-04-19T10:20:57.745Z,6.17
2023-04-19T10:23:25.189Z,6.03
2023-04-19T10:25:54.095Z,6.40
2023-04-19T10:28:21.534Z,5.70
2023-04-19T10:30:55.644Z,6.50
2023-04-19T10:33:27.544Z,6.17
2023-04-19T10:35:59.383Z,6.00
2023-04-19T10:38:47.457Z,5.73
2023-04-19T10:41:17.446Z,5.40
2023-04-19T10:43:58.257Z,5.60
2023-04-19T10:46:28.791Z,5.80
2023-04-19T10:49:00.064Z,6.27
2023-04-19T10:51:28.295Z,5.63
2023-04-19T10:53:56.462Z,6.73
2023-04-19T10:56:39.038Z,6.13
2023-04-19T10:59:09.506Z,6.37
2023-04-19T11:01:39.225Z,5.83
2023-04-19T11:04:10.055Z,5.90
2023-04-19T11:06:54.293Z,6.27
2023-04-19T11:09:32.228Z,5.60
2023-04-19T11:12:03.758Z,5.60
2023-04-19T11:14:32.911Z,6.27
2023-04-19T11:17:00.974Z,6.13
2023-04-19T11:19:28.695Z,5.63
2023-04-19T11:21:57.601Z,6.10
2023-04-19T11:24:25.051Z,5.53
2023-04-19T11:26:55.306Z,5.87
2023-04-19T11:29:21.848Z,6.10
2023-04-19T11:31:49.336Z,5.33
2023-04-19T11:34:17.160Z,5.70
2023-04-19T11:36:48.295Z,6.20
2023-04-19T11:39:16.134Z,5.90
2023-04-19T11:41:43.597Z,5.43
2023-04-19T11:44:14.705Z,5.40
2023-04-19T11:46:42.975Z,6.17
2023-04-19T11:49:10.376Z,6.40
2023-04-19T11:51:39.296Z,5.17
2023-04-19T11:54:08.240Z,5.40
2023-04-19T11:56:35.872Z,4.63
2023-04-19T11:59:03.322Z,5.77
2023-04-19T12:01:32.143Z,5.37
2023-04-19T12:04:01.202Z,4.80
2023-04-19T12:06:31.407Z,5.53
2023-04-19T12:08:58.990Z,4.73
2023-04-19T12:11:27.284Z,4.80
2023-04-19T12:14:10.447Z,4.80
2023-04-19T12:16:38.647Z,4.40
2023-04-19T12:19:15.071Z,4.20
2023-04-19T12:21:42.627Z,4.40
2023-04-19T12:24:10.080Z,4.80
2023-04-19T12:26:37.485Z,4.40
2023-04-19T12:29:06.336Z,4.30
2023-04-19T12:31:33.891Z,3.43
2023-04-19T12:34:01.314Z,4.30
2023-04-19T12:36:30.072Z,3.53
2023-04-19T12:38:57.502Z,3.23
2023-04-19T12:41:25.054Z,3.90
2023-04-19T12:43:52.458Z,3.33
2023-04-19T12:46:19.912Z,3.80
2023-04-19T12:48:47.269Z,3.23
2023-04-19T12:51:14.664Z,3.00
2023-04-19T12:53:42.357Z,3.10
2023-04-19T12:56:09.752Z,3.17
2023-04-19T12:58:37.173Z,2.60
2023-04-19T13:01:04.569Z,2.60
2023-04-19T13:03:33.086Z,3.80
2023-04-19T13:06:01.139Z,3.20
2023-04-19T13:08:44.057Z,2.70
2023-04-19T13:10:59.574Z,3.27
2023-04-19T13:13:27.071Z,2.40
2023-04-19T13:15:54.483Z,2.47
2023-04-19T13:18:22.152Z,2.80
2023-04-19T13:20:49.886Z,2.40
2023-04-19T13:23:17.294Z,2.40
2023-04-19T13:25:44.684Z,2.67
2023-04-19T13:28:12.085Z,2.90
2023-04-19T13:30:39.485Z,3.03
2023-04-19T13:33:08.828Z,2.83
2023-04-19T13:35:35.890Z,3.97
2023-04-19T13:38:03.285Z,3.93
2023-04-19T13:40:30.648Z,3.03
2023-04-19T13:42:58.091Z,3.63
2023-04-19T13:45:25.531Z,3.13
2023-04-19T13:47:52.950Z,2.80
2023-04-19T13:50:20.764Z,3.50
2023-04-19T13:52:48.189Z,2.67
2023-04-19T13:55:15.705Z,2.80
2023-04-19T13:57:43.677Z,2.80
2023-04-19T14:00:11.256Z,2.70
2023-04-19T14:02:38.773Z,2.70
2023-04-19T14:05:06.427Z,2.20
2023-04-19T14:07:33.823Z,2.30
2023-04-19T14:10:01.193Z,2.47
2023-04-19T14:12:28.602Z,2.80
2023-04-19T14:14:55.980Z,2.20
2023-04-19T14:17:23.392Z,2.20
2023-04-19T14:19:50.827Z,1.87
2023-04-19T14:22:18.584Z,2.80
2023-04-19T14:24:46.637Z,3.20
2023-04-19T14:27:14.126Z,2.90
2023-04-19T14:29:41.526Z,2.10
2023-04-19T14:32:24.094Z,2.50
2023-04-19T14:34:38.170Z,2.73
2023-04-19T14:37:05.660Z,2.10
2023-04-19T14:39:33.036Z,2.00
2023-04-19T14:42:00.443Z,2.00
2023-04-19T14:44:27.833Z,4.50
2023-04-19T14:46:55.322Z,2.27
2023-04-19T14:49:22.710Z,2.73
2023-04-19T14:51:50.188Z,2.70
2023-04-19T14:54:17.585Z,2.00
2023-04-19T14:56:45.074Z,2.20
2023-04-19T14:59:12.486Z,2.40
2023-04-19T15:01:39.851Z,3.10
2023-04-19T15:04:07.426Z,2.30
2023-04-19T15:06:34.959Z,2.50
2023-04-19T15:09:02.349Z,2.20
2023-04-19T15:11:29.747Z,2.33
2023-04-19T15:13:57.156Z,2.10
2023-04-19T15:16:24.598Z,2.40
2023-04-19T15:18:52.196Z,2.40
2023-04-19T15:21:22.928Z,2.87
2023-04-19T15:23:49.759Z,2.30
2023-04-19T15:26:17.480Z,2.60
2023-04-19T15:28:44.882Z,2.60
2023-04-19T15:31:12.310Z,2.17
2023-04-19T15:33:39.716Z,2.60
2023-04-19T15:36:07.209Z,2.80
2023-04-19T15:38:34.585Z,2.80
2023-04-19T15:41:01.998Z,2.70
2023-04-19T15:43:29.385Z,2.70
2023-04-19T15:45:57.302Z,2.50
2023-04-19T15:48:24.852Z,2.40
2023-04-19T15:50:52.230Z,2.83
2023-04-19T15:53:19.647Z,2.57
2023-04-19T15:55:47.804Z,2.87
2023-04-19T15:58:15.772Z,3.37
2023-04-19T16:00:43.160Z,3.00
2023-04-19T16:03:12.312Z,2.83
2023-04-19T16:05:40.052Z,2.80
2023-04-19T16:08:09.165Z,2.70
2023-04-19T16:10:36.692Z,2.93
2023-04-19T16:13:05.632Z,3.37
2023-04-19T16:15:33.389Z,3.70
2023-04-19T16:18:01.131Z,3.17
2023-04-19T16:20:28.609Z,3.83
2023-04-19T16:22:57.268Z,4.50
2023-04-19T16:25:24.655Z,3.10
2023-04-19T16:27:51.961Z,2.77
2023-04-19T16:30:19.333Z,3.17
2023-04-19T16:32:46.731Z,2.90
2023-04-19T16:35:14.175Z,3.00
2023-04-19T16:37:41.546Z,3.00
2023-04-19T16:40:10.283Z,3.33
2023-04-19T16:42:38.218Z,3.27
2023-04-19T16:45:06.311Z,3.50
2023-04-19T16:47:34.266Z,3.13
2023-04-19T16:50:02.052Z,3.20
2023-04-19T16:52:30.004Z,3.23
2023-04-19T16:54:57.456Z,2.93
2023-04-19T16:57:24.848Z,2.87
2023-04-19T16:59:52.275Z,3.00
2023-04-19T17:02:19.818Z,3.53
2023-04-19T17:04:47.489Z,2.50
2023-04-19T17:07:16.077Z,2.83
2023-04-19T17:09:43.466Z,3.03
2023-04-19T17:12:10.828Z,2.23
2023-04-19T17:14:39.866Z,2.37
2023-04-19T17:17:07.257Z,2.83
2023-04-19T17:19:34.856Z,2.70
2023-04-19T17:22:03.893Z,2.57
2023-04-19T17:24:32.799Z,2.30
2023-04-19T17:27:00.620Z,2.67
2023-04-19T17:29:27.940Z,2.70
2023-04-19T17:31:56.032Z,3.17
2023-04-19T17:34:23.961Z,2.80
2023-04-19T17:36:51.326Z,2.70
2023-04-19T17:39:18.978Z,3.20
2023-04-19T17:41:46.536Z,3.20
2023-04-19T17:44:13.900Z,3.10
2023-04-19T17:46:41.301Z,3.27
2023-04-19T17:49:09.527Z,2.90
2023-04-19T17:51:36.926Z,2.50
2023-04-19T17:54:04.380Z,3.17
2023-04-19T17:56:31.746Z,3.30
2023-04-19T17:59:00.542Z,2.60
2023-04-19T18:01:29.956Z,3.00
2023-04-19T18:03:57.549Z,3.17
2023-04-19T18:06:24.946Z,3.20
2023-04-19T18:08:52.332Z,2.77
2023-04-19T18:11:19.718Z,2.80
2023-04-19T18:13:47.169Z,2.83
2023-04-19T18:16:16.215Z,2.20
2023-04-19T18:18:43.649Z,2.70
2023-04-19T18:21:11.033Z,2.87
2023-04-19T18:23:38.406Z,2.43
2023-04-19T18:26:05.784Z,2.43
2023-04-19T18:28:34.793Z,2.53
2023-04-19T18:31:02.171Z,2.70
2023-04-19T18:33:29.919Z,2.60
2023-04-19T18:35:57.652Z,2.77
2023-04-19T18:38:24.966Z,2.40
2023-04-19T18:40:52.418Z,2.20
2023-04-19T18:43:19.722Z,2.63
2023-04-19T18:45:48.659Z,2.50
2023-04-19T18:48:16.052Z,2.43
2023-04-19T18:50:43.394Z,2.50
2023-04-19T18:53:10.829Z,2.30
2023-04-19T18:55:38.139Z,2.73
2023-04-19T18:58:05.996Z,2.57
2023-04-19T19:00:33.372Z,2.70
2023-04-19T19:03:02.836Z,2.50
2023-04-19T19:05:29.897Z,2.23
2023-04-19T19:07:57.497Z,2.80
2023-04-19T19:10:48.540Z,2.53
2023-04-19T19:12:54.256Z,2.10
2023-04-19T19:15:21.639Z,2.47
2023-04-19T19:17:50.419Z,2.70
2023-04-19T19:20:18.800Z,2.60
2023-04-19T19:22:46.315Z,2.53
2023-04-19T19:25:13.753Z,2.30
2023-04-19T19:27:49.888Z,2.20
2023-04-19T19:30:11.144Z,2.97
2023-04-19T19:32:39.722Z,2.90
2023-04-19T19:35:09.127Z,2.60
2023-04-19T19:37:37.193Z,2.73
2023-04-19T19:40:06.857Z,3.20
2023-04-19T19:42:38.538Z,2.63
2023-04-19T19:45:07.189Z,2.80
2023-04-19T19:47:35.684Z,2.53
2023-04-19T19:52:33.221Z,2.37
2023-04-19T19:55:01.030Z,2.97
2023-04-19T20:00:13.044Z,2.37
2023-04-19T20:02:27.054Z,2.50
2023-04-19T20:04:54.759Z,2.73
2023-04-19T20:09:52.288Z,2.80
2023-04-19T20:12:19.733Z,2.70
2023-04-19T20:14:47.035Z,2.53
2023-04-19T20:17:14.419Z,2.77
2023-04-19T20:19:43.431Z,2.60
2023-04-19T20:22:10.802Z,2.63
2023-04-19T20:24:38.122Z,3.17
2023-04-19T20:27:05.484Z,2.33
2023-04-19T20:29:32.864Z,2.33
2023-04-19T20:32:00.305Z,2.67
2023-04-19T20:34:27.748Z,2.53
2023-04-19T20:36:55.133Z,2.57
2023-04-19T20:39:22.529Z,2.70
2023-04-19T20:41:51.154Z,2.90
2023-04-19T20:44:18.551Z,2.57
2023-04-19T20:46:46.244Z,3.07
2023-04-19T20:49:13.677Z,2.97
2023-04-19T20:51:41.079Z,2.90
2023-04-19T20:54:08.513Z,2.73
2023-04-19T20:56:35.903Z,3.10
2023-04-19T20:59:03.320Z,3.10
2023-04-19T21:01:31.588Z,3.10
2023-04-19T21:03:59.256Z,3.30
2023-04-19T21:06:26.822Z,2.60
2023-04-19T21:08:54.298Z,2.80
2023-04-19T21:11:21.915Z,3.20
2023-04-19T21:13:49.319Z,3.07
2023-04-19T21:16:16.757Z,2.80
2023-04-19T21:18:44.242Z,2.73
2023-04-19T21:21:11.617Z,3.33
2023-04-19T21:23:38.955Z,2.87
2023-04-19T21:26:06.315Z,2.70
2023-04-19T21:28:36.294Z,2.80
2023-04-19T21:31:03.942Z,2.83
2023-04-19T21:33:31.499Z,2.60
2023-04-19T21:35:58.888Z,2.97
2023-04-19T21:38:26.300Z,3.73
2023-04-19T21:40:53.651Z,3.10
2023-04-19T21:43:22.303Z,3.03
2023-04-19T21:45:49.676Z,3.47
2023-04-19T21:48:17.050Z,2.90
2023-04-19T21:50:44.435Z,3.50
2023-04-19T21:53:11.823Z,3.13
2023-04-19T21:55:39.335Z,3.30
2023-04-19T21:58:06.671Z,3.53
2023-04-19T22:00:34.110Z,3.30
2023-04-19T22:03:01.539Z,3.70
2023-04-19T22:05:28.916Z,3.33
2023-04-19T22:07:57.388Z,3.10
2023-04-19T22:10:25.508Z,3.50
2023-04-19T22:12:58.321Z,3.27
2023-04-19T22:15:24.778Z,3.40
2023-04-19T22:17:52.221Z,3.57
2023-04-19T22:20:19.588Z,3.70
2023-04-19T22:22:46.952Z,3.10
2023-04-19T22:25:14.340Z,3.10
2023-04-19T22:27:41.791Z,3.97
2023-04-19T22:30:09.347Z,3.60
2023-04-19T22:32:36.838Z,3.17
2023-04-19T22:35:04.290Z,3.27
2023-04-19T22:37:31.615Z,3.33
2023-04-19T22:39:59.263Z,3.67
2023-04-19T22:42:26.662Z,3.50
2023-04-19T22:44:54.045Z,3.80
2023-04-19T22:47:21.568Z,2.90
2023-04-19T22:49:49.421Z,3.33
2023-04-19T22:52:17.169Z,3.10
2023-04-19T22:54:44.560Z,4.30
2023-04-19T22:57:12.069Z,3.60
2023-04-19T22:59:39.488Z,3.70
2023-04-19T23:02:06.920Z,3.90
2023-04-19T23:04:36.332Z,3.50
2023-04-19T23:07:03.845Z,4.30
2023-04-19T23:09:31.231Z,3.40
2023-04-19T23:12:01.861Z,3.40
2023-04-19T23:14:29.258Z,3.73
2023-04-19T23:16:56.902Z,4.30
2023-04-19T23:19:25.263Z,3.70
2023-04-19T23:21:52.624Z,3.60
2023-04-19T23:24:20.021Z,3.37
2023-04-19T23:26:47.398Z,3.90
2023-04-19T23:29:14.949Z,3.73
2023-04-19T23:31:42.420Z,3.37
2023-04-19T23:34:09.762Z,3.70
2023-04-19T23:36:37.147Z,4.00
2023-04-19T23:39:04.913Z,4.27
2023-04-19T23:41:32.282Z,3.93
2023-04-19T23:43:59.617Z,4.00
2023-04-19T23:46:27.059Z,4.20
2023-04-19T23:48:54.428Z,4.70
2023-04-19T23:51:21.735Z,4.30
2023-04-19T23:53:49.132Z,3.93
2023-04-19T23:56:16.507Z,4.47
2023-04-19T23:58:43.900Z,4.33
